Beyne-Heusay, Belgium
Current Conditions -  °F | °C
As of 7:20 PM on Sunday 25 Jan 2015 (Local Time) from EBLG Reporting Station
Light Rain Light Rain  
Wind Chill: 29°   Ceiling: Unl
Heat Index: 36°   Visibility: 2.8mi
Dew Point: 34°   Wind: 8mph
Humidity: 93%   Direction: 190°S
Pressure: 30.39"   Gusts: NA
Location:  50.62°N, 5.67°E
Report Text: EBLG 251820Z 19007KT 4500 -RA FEW006 SCT027 02/01 Q1029 R23/120195 TEMPO BKN005
Loading
Personal Weather Stations






























Interactive Weather Map New forecast layout! Learn more

10-Day Weather Forecast

Advertisements
Track Severe Weather on mobile